createdAt,value
2018-07-20T00:01:00.903Z,56.14
2018-07-20T00:06:04.443Z,54.50
2018-07-20T00:11:09.248Z,55.56
2018-07-20T00:16:13.234Z,56.43
2018-07-20T00:21:16.964Z,55.85
2018-07-20T00:26:21.385Z,57.22
2018-07-20T00:31:24.940Z,56.87
2018-07-20T00:36:28.874Z,56.72
2018-07-20T00:41:32.870Z,57.43
2018-07-20T00:46:36.929Z,58.94
2018-07-20T00:51:41.673Z,59.01
2018-07-20T00:56:45.297Z,58.07
2018-07-20T01:01:49.332Z,57.63
2018-07-20T01:06:52.938Z,59.43
2018-07-20T01:11:57.596Z,58.41
2018-07-20T01:17:01.247Z,58.73
2018-07-20T01:22:05.058Z,58.73
2018-07-20T01:27:08.681Z,57.47
2018-07-20T01:32:12.345Z,58.16
2018-07-20T01:37:16.126Z,59.20
2018-07-20T01:42:19.805Z,58.28
2018-07-20T01:47:23.427Z,59.28
2018-07-20T01:52:27.085Z,58.85
2018-07-20T01:57:30.652Z,59.47
2018-07-20T02:02:34.777Z,58.44
2018-07-20T02:07:38.357Z,58.34
2018-07-20T02:12:42.057Z,60.30
2018-07-20T02:17:46.653Z,59.42
2018-07-20T02:22:50.267Z,59.92
2018-07-20T02:27:53.853Z,59.25
2018-07-20T02:32:57.631Z,59.79
2018-07-20T02:38:01.175Z,60.76
2018-07-20T02:43:04.818Z,59.90
2018-07-20T02:48:08.466Z,59.59
2018-07-20T02:53:12.109Z,60.17
2018-07-20T02:58:15.754Z,60.46
2018-07-20T03:03:19.342Z,60.26
2018-07-20T03:08:22.919Z,59.58
2018-07-20T03:13:26.471Z,59.21
2018-07-20T03:18:30.026Z,59.87
2018-07-20T03:23:34.529Z,59.66
2018-07-20T03:28:38.041Z,60.82
2018-07-20T03:33:41.557Z,61.16
2018-07-20T03:38:45.165Z,60.87
2018-07-20T03:43:49.021Z,60.41
2018-07-20T03:48:52.722Z,59.79
2018-07-20T03:53:56.202Z,61.08
2018-07-20T03:58:59.681Z,60.36
2018-07-20T04:04:03.228Z,60.26
2018-07-20T04:09:12.094Z,60.70
2018-07-20T04:14:15.706Z,59.81
2018-07-20T04:19:19.284Z,60.38
2018-07-20T04:24:22.857Z,60.38
2018-07-20T04:29:26.417Z,61.04
2018-07-20T04:34:29.975Z,60.24
2018-07-20T04:39:33.506Z,59.65
2018-07-20T04:44:36.993Z,60.97
2018-07-20T04:49:40.563Z,61.43
2018-07-20T04:54:44.661Z,59.97
2018-07-20T04:59:48.158Z,60.41
2018-07-20T05:04:51.709Z,60.70
2018-07-20T05:09:55.731Z,61.45
2018-07-20T05:14:59.798Z,61.16
2018-07-20T05:20:07.700Z,60.46
2018-07-20T05:25:12.448Z,60.63
2018-07-20T05:30:16.652Z,60.53
2018-07-20T05:35:20.622Z,60.85
2018-07-20T05:40:25.247Z,60.62
2018-07-20T05:45:29.989Z,60.50
2018-07-20T05:50:34.698Z,60.53
2018-07-20T05:55:40.636Z,60.08
2018-07-20T06:00:44.786Z,59.83
2018-07-20T06:05:48.764Z,59.71
2018-07-20T06:10:52.824Z,59.52
2018-07-20T06:15:56.924Z,59.36
2018-07-20T06:21:00.942Z,58.79
2018-07-20T06:26:05.603Z,58.86
2018-07-20T06:31:09.628Z,58.07
2018-07-20T06:36:13.620Z,57.71
2018-07-20T06:41:17.592Z,57.40
2018-07-20T06:46:21.541Z,57.08
2018-07-20T06:51:25.476Z,56.64
2018-07-20T06:56:29.338Z,56.32
2018-07-20T07:01:34.116Z,55.92
2018-07-20T07:06:38.197Z,55.38
2018-07-20T07:11:42.069Z,55.39
2018-07-20T07:16:46.229Z,53.96
2018-07-20T07:21:51.625Z,53.63
2018-07-20T07:26:56.322Z,53.21
2018-07-20T07:32:02.311Z,53.28
2018-07-20T07:37:06.566Z,52.16
2018-07-20T07:42:13.849Z,51.23
2018-07-20T07:47:18.207Z,50.44
2018-07-20T07:52:22.340Z,50.62
2018-07-20T07:57:28.143Z,49.37
2018-07-20T08:02:34.015Z,47.13
2018-07-20T08:07:38.840Z,47.22
2018-07-20T08:12:43.752Z,45.85
2018-07-20T08:17:47.561Z,45.54
2018-07-20T08:22:51.737Z,45.86
2018-07-20T08:27:55.691Z,45.74
2018-07-20T08:33:00.548Z,45.29
2018-07-20T08:38:04.427Z,45.45
2018-07-20T08:43:10.471Z,43.88
2018-07-20T08:48:15.151Z,44.33
2018-07-20T08:53:24.969Z,44.85
2018-07-20T08:58:28.899Z,42.88
2018-07-20T09:03:32.923Z,42.38
2018-07-20T09:08:36.960Z,41.30
2018-07-20T09:13:41.024Z,40.46
2018-07-20T09:18:45.020Z,38.93
2018-07-20T09:23:49.010Z,38.94
2018-07-20T09:28:54.031Z,38.50
2018-07-20T09:33:57.997Z,38.40
2018-07-20T09:39:01.908Z,38.70
2018-07-20T09:44:05.841Z,39.27
2018-07-20T09:49:09.952Z,39.51
2018-07-20T09:54:13.803Z,39.65
2018-07-20T09:59:18.235Z,40.22
2018-07-20T10:04:22.301Z,40.07
2018-07-20T10:09:26.287Z,40.16
2018-07-20T10:14:30.164Z,39.67
2018-07-20T10:19:34.352Z,39.68
2018-07-20T10:24:39.877Z,39.71
2018-07-20T10:29:45.856Z,39.27
2018-07-20T10:34:50.215Z,38.80
2018-07-20T10:39:54.190Z,37.84
2018-07-20T10:44:58.144Z,37.09
2018-07-20T10:50:06.612Z,36.89
2018-07-20T10:55:14.352Z,37.84
2018-07-20T11:00:18.373Z,37.83
2018-07-20T11:05:22.316Z,37.20
2018-07-20T11:10:27.089Z,37.22
2018-07-20T11:15:31.164Z,37.01
2018-07-20T11:20:35.277Z,36.65
2018-07-20T11:25:39.226Z,36.36
2018-07-20T11:30:43.848Z,35.57
2018-07-20T11:35:47.956Z,36.18
2018-07-20T11:40:51.972Z,35.27
2018-07-20T11:45:56.601Z,34.56
2018-07-20T11:51:01.128Z,34.99
2018-07-20T11:56:05.109Z,34.60
2018-07-20T12:01:09.326Z,34.21
2018-07-20T12:06:15.423Z,32.99
2018-07-20T12:11:20.377Z,33.52
2018-07-20T12:16:25.042Z,33.44
2018-07-20T12:21:31.012Z,33.28
2018-07-20T12:26:36.546Z,33.72
2018-07-20T12:31:41.351Z,33.25
2018-07-20T12:36:46.066Z,32.98
2018-07-20T12:41:50.283Z,33.00
2018-07-20T12:46:54.683Z,32.93
2018-07-20T12:51:58.967Z,33.62
2018-07-20T12:57:04.335Z,31.52
2018-07-20T13:02:09.300Z,31.12
2018-07-20T13:07:13.506Z,30.64
2018-07-20T13:12:19.775Z,31.47
2018-07-20T13:17:23.854Z,31.40
2018-07-20T13:22:30.058Z,31.62
2018-07-20T13:27:34.952Z,30.86
2018-07-20T13:32:39.247Z,30.87
2018-07-20T13:37:43.344Z,29.96
2018-07-20T13:42:47.542Z,30.54
2018-07-20T13:47:51.817Z,29.87
2018-07-20T13:52:56.050Z,30.12
2018-07-20T13:58:00.091Z,29.33
2018-07-20T14:03:03.992Z,30.29
2018-07-20T14:08:07.949Z,30.63
2018-07-20T14:13:12.136Z,30.86
2018-07-20T14:18:16.181Z,29.99
2018-07-20T14:23:20.393Z,29.88
2018-07-20T14:28:24.275Z,29.14
2018-07-20T14:33:28.212Z,29.21
2018-07-20T14:38:32.839Z,28.59
2018-07-20T14:43:36.951Z,28.41
2018-07-20T14:48:41.151Z,28.56
2018-07-20T14:53:45.194Z,27.95
2018-07-20T14:58:49.815Z,28.04
2018-07-20T15:03:55.438Z,27.54
2018-07-20T15:09:00.853Z,27.34
2018-07-20T15:14:04.705Z,27.73
2018-07-20T15:19:08.571Z,27.02
2018-07-20T15:24:14.191Z,26.52
2018-07-20T15:29:22.286Z,26.97
2018-07-20T15:34:26.500Z,26.94
2018-07-20T15:39:30.724Z,27.42
2018-07-20T15:44:35.198Z,27.28
2018-07-20T15:49:45.410Z,27.31
2018-07-20T15:54:50.877Z,26.59
2018-07-20T15:59:56.257Z,26.87
2018-07-20T16:10:11.484Z,25.43
2018-07-20T16:15:19.294Z,23.74
2018-07-20T16:20:23.843Z,22.66
2018-07-20T16:25:29.266Z,22.37
2018-07-20T16:30:33.810Z,22.32
2018-07-20T16:35:38.086Z,22.14
2018-07-20T16:40:42.366Z,22.49
2018-07-20T16:45:47.089Z,23.66
2018-07-20T16:50:50.982Z,24.11
2018-07-20T16:55:55.375Z,25.05
2018-07-20T17:01:00.213Z,25.26
2018-07-20T17:06:05.488Z,25.80
2018-07-20T17:11:10.260Z,26.38
2018-07-20T17:16:14.700Z,26.20
2018-07-20T17:21:19.098Z,25.77
2018-07-20T17:26:23.708Z,26.38
2018-07-20T17:31:28.053Z,26.69
2018-07-20T17:36:32.447Z,26.80
2018-07-20T17:41:36.855Z,27.16
2018-07-20T17:46:41.406Z,26.57
2018-07-20T17:51:46.021Z,25.00
2018-07-20T17:56:50.354Z,24.85
2018-07-20T18:01:54.962Z,25.87
2018-07-20T18:06:59.281Z,26.54
2018-07-20T18:12:04.110Z,26.71
2018-07-20T18:17:08.435Z,26.43
2018-07-20T18:22:14.193Z,27.44
2018-07-20T18:27:19.405Z,28.58
2018-07-20T18:32:24.536Z,28.41
2018-07-20T18:37:34.636Z,28.78
2018-07-20T18:42:40.514Z,29.86
2018-07-20T18:47:45.318Z,30.29
2018-07-20T18:52:49.986Z,30.45
2018-07-20T18:57:55.118Z,31.82
2018-07-20T19:02:59.785Z,31.96
2018-07-20T19:08:04.247Z,32.19
2018-07-20T19:13:09.137Z,32.85
2018-07-20T19:18:14.060Z,32.79
2018-07-20T19:23:18.953Z,32.79
2018-07-20T19:28:29.884Z,33.24
2018-07-20T19:33:35.344Z,34.12
2018-07-20T19:38:40.171Z,33.92
2018-07-20T19:43:44.606Z,34.40
2018-07-20T19:48:48.994Z,35.07
2018-07-20T19:53:52.804Z,35.66
2018-07-20T19:58:57.860Z,35.61
2018-07-20T20:04:02.250Z,35.69
2018-07-20T20:09:09.069Z,36.67
2018-07-20T20:14:13.386Z,37.78
2018-07-20T20:19:18.028Z,37.53
2018-07-20T20:24:22.166Z,37.22
2018-07-20T20:29:26.872Z,38.38
2018-07-20T20:34:31.171Z,38.81
2018-07-20T20:39:35.537Z,39.23
2018-07-20T20:44:40.749Z,39.23
2018-07-20T20:49:44.715Z,39.22
2018-07-20T20:54:49.625Z,39.22
2018-07-20T20:59:53.277Z,39.91
2018-07-20T21:04:57.005Z,39.53
2018-07-20T21:10:01.331Z,40.85
2018-07-20T21:15:05.333Z,41.04
2018-07-20T21:20:09.148Z,40.76
2018-07-20T21:25:12.829Z,39.95
2018-07-20T21:30:16.763Z,40.43
2018-07-20T21:35:21.210Z,40.06
2018-07-20T21:40:25.394Z,40.86
2018-07-20T21:45:30.348Z,41.37
2018-07-20T21:50:35.143Z,41.23
2018-07-20T21:55:39.758Z,41.60
2018-07-20T22:00:43.865Z,41.63
2018-07-20T22:05:47.733Z,41.18
2018-07-20T22:10:51.884Z,41.81
2018-07-20T22:15:56.031Z,41.82
2018-07-20T22:20:59.943Z,41.29
2018-07-20T22:26:05.544Z,41.45
2018-07-20T22:31:11.714Z,41.63
2018-07-20T22:36:15.991Z,41.83
2018-07-20T22:41:19.922Z,42.03
2018-07-20T22:46:23.546Z,41.76
2018-07-20T22:51:27.581Z,41.90
2018-07-20T22:56:31.794Z,41.89
2018-07-20T23:01:35.718Z,42.37
2018-07-20T23:06:39.265Z,42.50
2018-07-20T23:11:42.882Z,42.21
2018-07-20T23:16:47.899Z,42.30
2018-07-20T23:21:52.741Z,42.52
2018-07-20T23:26:56.699Z,43.08
2018-07-20T23:32:00.414Z,42.74
2018-07-20T23:37:05.478Z,42.60
2018-07-20T23:42:09.384Z,43.20
2018-07-20T23:47:13.233Z,43.49
2018-07-20T23:52:17.558Z,43.79
2018-07-20T23:57:22.616Z,44.08
